createdAt,value
2022-12-09T00:05:29.278Z,0
2022-12-09T00:15:06.197Z,0
2022-12-09T00:24:43.186Z,0
2022-12-09T00:34:19.054Z,0
2022-12-09T00:43:55.828Z,0
2022-12-09T00:53:32.468Z,0
2022-12-09T01:03:09.616Z,0
2022-12-09T01:12:46.417Z,0
2022-12-09T01:22:22.756Z,0
2022-12-09T01:31:59.540Z,0
2022-12-09T01:41:35.969Z,0
2022-12-09T01:51:12.605Z,0
2022-12-09T02:00:48.896Z,0
2022-12-09T02:10:25.371Z,0
2022-12-09T02:20:02.176Z,0
2022-12-09T02:29:38.950Z,0
2022-12-09T02:39:15.928Z,0
2022-12-09T02:48:52.478Z,0
2022-12-09T02:58:28.854Z,0
2022-12-09T03:08:04.945Z,0
2022-12-09T03:17:41.722Z,0
2022-12-09T03:27:17.664Z,0
2022-12-09T03:36:53.968Z,0
2022-12-09T03:46:30.681Z,0
2022-12-09T03:56:07.822Z,0
2022-12-09T04:05:45.102Z,0
2022-12-09T04:15:22.184Z,0
2022-12-09T04:24:58.934Z,0
2022-12-09T04:34:37.698Z,0
2022-12-09T04:44:13.534Z,0
2022-12-09T04:53:49.448Z,0
2022-12-09T05:03:25.615Z,0
2022-12-09T05:13:02.678Z,0
2022-12-09T05:22:39.561Z,0
2022-12-09T05:32:16.653Z,0
2022-12-09T05:41:53.351Z,0
2022-12-09T05:51:29.995Z,0
2022-12-09T06:01:06.560Z,0
2022-12-09T06:10:44.139Z,0
2022-12-09T06:20:20.600Z,0
2022-12-09T06:29:57.708Z,0
2022-12-09T06:39:34.797Z,1.67
2022-12-09T06:49:11.825Z,5.83
2022-12-09T06:58:48.272Z,11.67
2022-12-09T07:08:25.176Z,30
2022-12-09T07:18:01.944Z,51.67
2022-12-09T07:27:38.226Z,95.83
2022-12-09T07:37:15.085Z,203.33
2022-12-09T07:46:52.101Z,317.5
2022-12-09T07:56:29.329Z,311.67
2022-12-09T08:06:06.574Z,223.33
2022-12-09T08:15:43.421Z,328.33
2022-12-09T08:25:22.342Z,315.83
2022-12-09T08:34:58.264Z,332.5
2022-12-09T08:44:34.931Z,466.67
2022-12-09T08:54:14.594Z,588.33
2022-12-09T09:03:50.196Z,639.17
2022-12-09T09:13:27.113Z,470.83
2022-12-09T09:23:05.114Z,2045.83
2022-12-09T09:32:44.273Z,1846.67
2022-12-09T09:42:18.366Z,1425.83
2022-12-09T09:51:54.983Z,1449.17
2022-12-09T10:01:31.645Z,1631.67
2022-12-09T10:11:08.468Z,2001.67
2022-12-09T10:20:45.907Z,2569.17
2022-12-09T10:30:24.323Z,3240.83
2022-12-09T10:40:02.343Z,3137.5
2022-12-09T10:49:40.064Z,2369.17
2022-12-09T10:59:16.577Z,2262.5
2022-12-09T11:08:53.500Z,1167.5
2022-12-09T11:18:30.130Z,1114.17
2022-12-09T11:28:06.104Z,956.67
2022-12-09T11:37:42.907Z,930.83
2022-12-09T11:47:19.930Z,1010
2022-12-09T11:56:57.134Z,1203.33
2022-12-09T12:06:34.838Z,2170
2022-12-09T12:16:12.029Z,1091.67
2022-12-09T12:25:49.142Z,1298.33
2022-12-09T12:35:25.189Z,1229.17
2022-12-09T12:45:02.587Z,1349.17
2022-12-09T12:54:39.238Z,1137.5
2022-12-09T13:04:16.504Z,1201.67
2022-12-09T13:13:53.202Z,686.67
2022-12-09T13:23:28.913Z,498.33
2022-12-09T13:33:05.132Z,546.67
2022-12-09T13:42:46.512Z,537.5
2022-12-09T13:52:18.422Z,317.5
2022-12-09T14:01:54.952Z,189.17
2022-12-09T14:11:31.279Z,175
2022-12-09T14:21:07.821Z,109.17
2022-12-09T14:30:44.331Z,121.67
2022-12-09T14:40:21.015Z,85
2022-12-09T14:49:57.521Z,70.83
2022-12-09T14:59:34.284Z,40.83
2022-12-09T15:09:10.955Z,15
2022-12-09T15:18:47.417Z,5.83
2022-12-09T15:28:26.725Z,1.67
2022-12-09T15:38:01.095Z,0
2022-12-09T15:47:37.711Z,0
2022-12-09T15:57:14.391Z,0
2022-12-09T16:06:51.430Z,0
2022-12-09T16:16:28.112Z,0
2022-12-09T16:26:07.174Z,0
2022-12-09T16:35:41.683Z,0
2022-12-09T16:45:18.539Z,0
2022-12-09T16:54:55.473Z,0
2022-12-09T17:04:32.165Z,0
2022-12-09T17:14:08.763Z,0
2022-12-09T17:23:46.627Z,0
2022-12-09T17:33:23.283Z,0
2022-12-09T17:42:59.776Z,0
2022-12-09T17:52:36.459Z,0
2022-12-09T18:02:13.249Z,0.83
2022-12-09T18:11:49.746Z,0
2022-12-09T18:21:26.603Z,0
2022-12-09T18:31:03.185Z,0
2022-12-09T18:40:39.607Z,0
2022-12-09T18:50:16.486Z,0
2022-12-09T18:59:52.963Z,0
2022-12-09T19:09:30.013Z,0
2022-12-09T19:19:09.876Z,0
2022-12-09T19:28:43.094Z,0
2022-12-09T19:38:19.909Z,0
2022-12-09T19:47:56.493Z,0
2022-12-09T19:57:33.176Z,0
2022-12-09T20:07:09.967Z,0
2022-12-09T20:16:46.677Z,0
2022-12-09T20:26:23.229Z,0
2022-12-09T20:36:00.056Z,0
2022-12-09T20:45:36.560Z,0
2022-12-09T20:55:13.297Z,0
2022-12-09T21:04:50.363Z,0
2022-12-09T21:14:32.537Z,0
2022-12-09T21:24:03.985Z,0
2022-12-09T21:33:40.546Z,0
2022-12-09T21:43:17.230Z,0
2022-12-09T21:52:53.950Z,0
2022-12-09T22:02:30.931Z,0
2022-12-09T22:12:07.502Z,0
2022-12-09T22:21:44.052Z,0
2022-12-09T22:31:20.898Z,0
2022-12-09T22:40:57.587Z,0
2022-12-09T22:50:34.082Z,0
2022-12-09T23:00:11.018Z,0
2022-12-09T23:09:47.441Z,0
2022-12-09T23:19:25.994Z,0
2022-12-09T23:29:00.998Z,0
2022-12-09T23:38:37.607Z,0
2022-12-09T23:48:14.603Z,0
2022-12-09T23:57:50.921Z,0
